createdAt,value
2018-02-16T00:01:51.092Z,3.11
2018-02-16T00:05:03.779Z,3.04
2018-02-16T00:08:07.173Z,3.05
2018-02-16T00:11:10.572Z,3.05
2018-02-16T00:14:13.928Z,3.10
2018-02-16T00:17:18.028Z,3.08
2018-02-16T00:20:21.359Z,3.03
2018-02-16T00:23:24.748Z,3.02
2018-02-16T00:26:28.851Z,3.05
2018-02-16T00:29:32.685Z,3.06
2018-02-16T00:32:36.075Z,3.14
2018-02-16T00:35:40.185Z,3.24
2018-02-16T00:38:44.286Z,3.19
2018-02-16T00:41:47.677Z,3.25
2018-02-16T00:44:51.722Z,3.24
2018-02-16T00:47:55.838Z,3.16
2018-02-16T00:50:59.968Z,3.24
2018-02-16T00:54:03.337Z,3.25
2018-02-16T00:57:06.666Z,3.26
2018-02-16T01:00:12.493Z,3.20
2018-02-16T01:03:15.817Z,3.19
2018-02-16T01:06:19.929Z,3.22
2018-02-16T01:09:24.047Z,3.20
2018-02-16T01:12:29.098Z,3.08
2018-02-16T01:15:32.424Z,3.11
2018-02-16T01:18:35.798Z,3.20
2018-02-16T01:21:39.900Z,3.23
2018-02-16T01:24:44.092Z,3.00
2018-02-16T01:27:47.413Z,3.03
2018-02-16T01:30:51.513Z,2.66
2018-02-16T01:33:54.843Z,2.51
2018-02-16T01:36:59.242Z,2.46
2018-02-16T01:40:03.404Z,2.56
2018-02-16T01:43:06.746Z,2.62
2018-02-16T01:46:10.090Z,2.73
2018-02-16T01:49:13.677Z,2.74
2018-02-16T01:52:17.776Z,2.87
2018-02-16T01:55:21.893Z,2.81
2018-02-16T01:58:25.216Z,2.89
2018-02-16T02:01:29.709Z,2.86
2018-02-16T02:04:33.049Z,2.78
2018-02-16T02:07:36.393Z,2.89
2018-02-16T02:10:39.787Z,3.03
2018-02-16T02:13:43.141Z,3.04
2018-02-16T02:17:09.893Z,3.06
2018-02-16T02:20:14.884Z,3.13
2018-02-16T02:23:19.003Z,3.05
2018-02-16T02:26:22.404Z,3.06
2018-02-16T02:29:26.767Z,2.91
2018-02-16T02:32:30.120Z,2.97
2018-02-16T02:35:34.275Z,2.96
2018-02-16T02:38:37.660Z,2.92
2018-02-16T02:41:41.772Z,3.04
2018-02-16T02:44:45.097Z,3.14
2018-02-16T02:47:48.446Z,3.09
2018-02-16T02:50:52.575Z,3.06
2018-02-16T02:53:56.692Z,3.09
2018-02-16T02:57:00.236Z,3.01
2018-02-16T03:00:03.884Z,3.42
2018-02-16T03:03:07.248Z,3.65
2018-02-16T03:06:10.580Z,3.68
2018-02-16T03:09:13.908Z,3.70
2018-02-16T03:12:18.005Z,3.76
2018-02-16T03:15:22.280Z,3.72
2018-02-16T03:18:25.635Z,3.69
2018-02-16T03:21:28.964Z,3.69
2018-02-16T03:24:32.304Z,3.70
2018-02-16T03:27:35.777Z,3.72
2018-02-16T03:30:39.117Z,3.67
2018-02-16T03:33:42.459Z,3.58
2018-02-16T03:36:45.793Z,3.59
2018-02-16T03:39:49.942Z,3.62
2018-02-16T03:42:53.282Z,3.63
2018-02-16T03:45:56.611Z,3.56
2018-02-16T03:49:01.213Z,3.56
2018-02-16T03:52:04.571Z,3.49
2018-02-16T03:55:07.926Z,3.46
2018-02-16T03:58:11.266Z,3.43
2018-02-16T04:01:15.411Z,3.46
2018-02-16T04:04:18.837Z,3.43
2018-02-16T04:07:22.193Z,3.43
2018-02-16T04:10:25.517Z,3.34
2018-02-16T04:13:28.915Z,3.41
2018-02-16T04:16:32.306Z,3.29
2018-02-16T04:19:36.652Z,3.33
2018-02-16T04:22:40.033Z,3.33
2018-02-16T04:25:44.132Z,3.26
2018-02-16T04:28:47.489Z,3.28
2018-02-16T04:31:50.817Z,3.25
2018-02-16T04:34:54.918Z,3.23
2018-02-16T04:37:58.273Z,3.19
2018-02-16T04:41:02.672Z,3.22
2018-02-16T04:44:06.771Z,3.24
2018-02-16T04:47:10.117Z,3.22
2018-02-16T04:50:13.441Z,3.20
2018-02-16T04:53:16.804Z,3.22
2018-02-16T04:56:20.916Z,3.20
2018-02-16T04:59:25.026Z,3.21
2018-02-16T05:02:29.142Z,3.20
2018-02-16T05:05:34.153Z,3.21
2018-02-16T05:08:37.497Z,3.24
2018-02-16T05:11:40.837Z,3.24
2018-02-16T05:14:44.250Z,3.24
2018-02-16T05:17:47.615Z,3.24
2018-02-16T05:20:50.937Z,3.24
2018-02-16T05:23:54.273Z,3.30
2018-02-16T05:26:57.640Z,3.30
2018-02-16T05:30:01.336Z,3.35
2018-02-16T05:33:04.697Z,3.30
2018-02-16T05:36:08.101Z,3.26
2018-02-16T05:39:11.442Z,3.26
2018-02-16T05:42:14.777Z,3.31
2018-02-16T05:45:18.127Z,3.30
2018-02-16T05:48:21.509Z,3.26
2018-02-16T05:51:24.860Z,3.25
2018-02-16T05:54:28.220Z,3.23
2018-02-16T05:57:31.572Z,3.30
2018-02-16T06:00:34.944Z,3.29
2018-02-16T06:03:38.269Z,3.30
2018-02-16T06:06:42.390Z,3.27
2018-02-16T06:09:45.804Z,3.30
2018-02-16T06:12:49.191Z,3.27
2018-02-16T06:15:53.334Z,3.26
2018-02-16T06:18:57.471Z,3.29
2018-02-16T06:22:00.796Z,3.28
2018-02-16T06:25:05.364Z,3.25
2018-02-16T06:28:08.906Z,3.34
2018-02-16T06:31:12.246Z,3.29
2018-02-16T06:34:15.675Z,3.24
2018-02-16T06:37:19.053Z,3.23
2018-02-16T06:40:23.141Z,3.22
2018-02-16T06:43:26.485Z,3.26
2018-02-16T06:46:29.812Z,3.35
2018-02-16T06:49:33.151Z,3.26
2018-02-16T06:52:37.265Z,3.26
2018-02-16T06:55:41.418Z,3.22
2018-02-16T06:58:44.769Z,3.24
2018-02-16T07:01:48.134Z,3.15
2018-02-16T07:04:51.477Z,3.12
2018-02-16T07:07:54.814Z,3.10
2018-02-16T07:10:58.332Z,3.13
2018-02-16T07:14:01.673Z,3.12
2018-02-16T07:17:05.008Z,3.07
2018-02-16T07:20:08.356Z,3.16
2018-02-16T07:23:11.915Z,3.16
2018-02-16T07:26:15.320Z,3.22
2018-02-16T07:29:18.734Z,3.30
2018-02-16T07:32:22.085Z,3.30
2018-02-16T07:35:25.470Z,3.11
2018-02-16T07:38:28.797Z,3.31
2018-02-16T07:41:32.129Z,3.36
2018-02-16T07:44:35.464Z,3.50
2018-02-16T07:47:38.818Z,3.63
2018-02-16T07:50:42.156Z,3.41
2018-02-16T07:53:45.497Z,3.46
2018-02-16T07:56:48.815Z,3.75
2018-02-16T07:59:52.220Z,3.48
2018-02-16T08:02:55.553Z,3.69
2018-02-16T08:06:00.429Z,3.89
2018-02-16T08:09:03.785Z,4.08
2018-02-16T08:12:07.297Z,4.18
2018-02-16T08:15:11.404Z,4.18
2018-02-16T08:18:14.841Z,4.17
2018-02-16T08:21:18.947Z,4.09
2018-02-16T08:24:22.314Z,4.19
2018-02-16T08:27:25.717Z,4.23
2018-02-16T08:30:29.122Z,4.26
2018-02-16T08:33:32.516Z,4.43
2018-02-16T08:36:35.852Z,4.32
2018-02-16T08:39:40.663Z,3.98
2018-02-16T08:42:43.997Z,3.91
2018-02-16T08:45:47.337Z,4.05
2018-02-16T08:48:51.223Z,4.40
2018-02-16T08:51:54.583Z,3.98
2018-02-16T08:54:58.747Z,3.76
2018-02-16T08:58:02.083Z,3.85
2018-02-16T09:01:06.195Z,3.98
2018-02-16T09:04:10.724Z,3.98
2018-02-16T09:07:14.046Z,3.94
2018-02-16T09:10:18.157Z,4.18
2018-02-16T09:13:22.261Z,4.05
2018-02-16T09:16:25.881Z,4.22
2018-02-16T09:19:30.104Z,4.30
2018-02-16T09:22:33.593Z,4.38
2018-02-16T09:25:37.740Z,4.36
2018-02-16T09:28:41.524Z,3.99
2018-02-16T09:31:44.899Z,3.92
2018-02-16T09:34:48.271Z,4.38
2018-02-16T09:37:51.586Z,4.27
2018-02-16T09:40:54.940Z,3.97
2018-02-16T09:43:59.040Z,3.96
2018-02-16T09:47:03.142Z,3.97
2018-02-16T09:50:06.484Z,4.35
2018-02-16T09:53:09.883Z,4.59
2018-02-16T09:56:14.187Z,4.45
2018-02-16T09:59:17.592Z,4.63
2018-02-16T10:02:20.909Z,4.63
2018-02-16T10:05:24.976Z,4.29
2018-02-16T10:08:28.311Z,4.79
2018-02-16T10:11:31.813Z,4.53
2018-02-16T10:14:35.176Z,4.57
2018-02-16T10:17:38.529Z,4.35
2018-02-16T10:20:41.869Z,4.44
2018-02-16T10:23:45.505Z,4.44
2018-02-16T10:26:49.595Z,4.30
2018-02-16T10:29:53.047Z,4.58
2018-02-16T10:32:56.376Z,4.38
2018-02-16T10:35:59.711Z,4.91
2018-02-16T10:39:03.060Z,4.79
2018-02-16T10:42:06.529Z,4.94
2018-02-16T10:45:09.918Z,4.96
2018-02-16T10:48:14.548Z,5.05
2018-02-16T10:51:18.013Z,4.91
2018-02-16T10:54:21.365Z,4.57
2018-02-16T10:57:25.541Z,4.64
2018-02-16T11:00:35.281Z,4.87
2018-02-16T11:03:38.622Z,4.97
2018-02-16T11:06:47.549Z,5.13
2018-02-16T11:09:50.880Z,4.87
2018-02-16T11:12:54.217Z,4.59
2018-02-16T11:15:58.462Z,4.76
2018-02-16T11:19:01.797Z,4.61
2018-02-16T11:22:05.169Z,4.66
2018-02-16T11:25:08.516Z,4.75
2018-02-16T11:28:11.841Z,4.81
2018-02-16T11:31:17.197Z,4.69
2018-02-16T11:34:21.304Z,5.15
2018-02-16T11:37:25.405Z,5.20
2018-02-16T11:40:28.747Z,5.30
2018-02-16T11:43:32.076Z,5.25
2018-02-16T11:46:35.414Z,4.97
2018-02-16T11:49:39.500Z,5.11
2018-02-16T11:52:42.856Z,5.53
2018-02-16T11:55:48.379Z,5.63
2018-02-16T11:58:52.465Z,5.54
2018-02-16T12:01:55.798Z,5.61
2018-02-16T12:04:59.917Z,5.63
2018-02-16T12:08:04.116Z,5.55
2018-02-16T12:11:07.465Z,5.27
2018-02-16T12:14:10.785Z,5.17
2018-02-16T12:17:14.168Z,5.30
2018-02-16T12:20:19.376Z,5.62
2018-02-16T12:23:23.483Z,5.67
2018-02-16T12:26:27.589Z,5.34
2018-02-16T12:29:30.928Z,5.24
2018-02-16T12:32:34.257Z,5.10
2018-02-16T12:35:37.596Z,5.06
2018-02-16T12:38:41.708Z,5.53
2018-02-16T12:41:45.092Z,5.30
2018-02-16T12:44:50.429Z,4.89
2018-02-16T12:47:53.757Z,4.85
2018-02-16T12:50:57.861Z,5.47
2018-02-16T12:54:02.031Z,5.75
2018-02-16T12:57:05.349Z,5.41
2018-02-16T13:00:08.699Z,5.96
2018-02-16T13:03:12.054Z,5.95
2018-02-16T13:06:15.397Z,5.43
2018-02-16T13:09:20.738Z,5.07
2018-02-16T13:12:24.845Z,4.69
2018-02-16T13:15:28.955Z,5.03
2018-02-16T13:18:32.289Z,5.02
2018-02-16T13:21:35.609Z,5.16
2018-02-16T13:24:38.942Z,5.50
2018-02-16T13:27:42.268Z,5.28
2018-02-16T13:30:45.636Z,5.23
2018-02-16T13:33:48.974Z,5.26
2018-02-16T13:36:52.321Z,5.09
2018-02-16T13:39:55.644Z,5.65
2018-02-16T13:42:59.750Z,5.46
2018-02-16T13:46:03.081Z,4.86
2018-02-16T13:49:06.486Z,5.31
2018-02-16T13:52:09.819Z,5.55
2018-02-16T13:55:13.322Z,5.70
2018-02-16T13:58:16.703Z,6.09
2018-02-16T14:01:20.285Z,5.73
2018-02-16T14:04:38.294Z,5.96
2018-02-16T14:07:41.617Z,6.34
2018-02-16T14:10:44.985Z,6.08
2018-02-16T14:13:48.378Z,6.01
2018-02-16T14:16:51.823Z,6.16
2018-02-16T14:19:55.194Z,5.91
2018-02-16T14:22:58.744Z,6.09
2018-02-16T14:26:02.094Z,6.28
2018-02-16T14:29:06.254Z,6.17
2018-02-16T14:32:09.616Z,5.83
2018-02-16T14:35:12.979Z,5.52
2018-02-16T14:38:16.312Z,5.34
2018-02-16T14:41:20.434Z,5.32
2018-02-16T14:44:23.921Z,5.60
2018-02-16T14:47:27.250Z,5.14
2018-02-16T14:50:31.360Z,4.98
2018-02-16T14:53:35.449Z,4.74
2018-02-16T14:56:38.804Z,4.76
2018-02-16T14:59:42.189Z,4.69
2018-02-16T15:02:46.303Z,4.57
2018-02-16T15:05:50.413Z,4.50
2018-02-16T15:08:55.190Z,4.53
2018-02-16T15:11:58.560Z,4.51
2018-02-16T15:15:01.890Z,4.59
2018-02-16T15:18:05.396Z,4.48
2018-02-16T15:21:08.718Z,4.48
2018-02-16T15:24:12.045Z,4.46
2018-02-16T15:27:15.520Z,4.42
2018-02-16T15:30:18.860Z,4.26
2018-02-16T15:33:22.236Z,4.20
2018-02-16T15:36:25.669Z,4.23
2018-02-16T15:39:29.876Z,4.10
2018-02-16T15:42:33.211Z,3.98
2018-02-16T15:45:36.573Z,3.89
2018-02-16T15:48:41.117Z,3.87
2018-02-16T15:51:44.507Z,3.80
2018-02-16T15:54:47.867Z,3.77
2018-02-16T15:57:51.984Z,3.80
2018-02-16T16:00:55.410Z,3.93
2018-02-16T16:03:59.510Z,3.94
2018-02-16T16:07:02.858Z,3.97
2018-02-16T16:10:06.173Z,3.99
2018-02-16T16:13:09.632Z,4.02
2018-02-16T16:16:12.979Z,4.06
2018-02-16T16:19:17.114Z,3.99
2018-02-16T16:22:20.460Z,3.95
2018-02-16T16:25:23.863Z,3.98
2018-02-16T16:28:27.201Z,4.07
2018-02-16T16:31:30.643Z,4.14
2018-02-16T16:34:33.986Z,4.13
2018-02-16T16:37:37.374Z,4.19
2018-02-16T16:40:40.708Z,4.09
2018-02-16T16:43:44.845Z,4.13
2018-02-16T16:46:48.202Z,4.19
2018-02-16T16:49:51.671Z,4.39
2018-02-16T16:52:56.698Z,4.18
2018-02-16T16:56:00.080Z,4.30
2018-02-16T16:59:04.239Z,4.30
2018-02-16T17:02:07.981Z,4.26
2018-02-16T17:05:11.496Z,4.31
2018-02-16T17:08:15.032Z,4.26
2018-02-16T17:11:18.521Z,4.08
2018-02-16T17:14:23.101Z,4.16
2018-02-16T17:17:27.072Z,4.28
2018-02-16T17:20:30.576Z,4.05
2018-02-16T17:23:33.958Z,4.06
2018-02-16T17:26:39.045Z,3.94
2018-02-16T17:29:43.153Z,4.17
2018-02-16T17:32:46.501Z,4.15
2018-02-16T17:35:49.953Z,4.13
2018-02-16T17:38:53.376Z,4.06
2018-02-16T17:41:57.524Z,4.02
2018-02-16T17:45:00.896Z,3.96
2018-02-16T17:48:04.456Z,3.92
2018-02-16T17:51:07.800Z,4.05
2018-02-16T17:54:11.169Z,3.94
2018-02-16T17:57:14.556Z,3.97
2018-02-16T18:00:17.938Z,3.97
2018-02-16T18:03:21.354Z,3.99
2018-02-16T18:06:24.749Z,4.00
2018-02-16T18:09:28.613Z,4.06
2018-02-16T18:12:32.059Z,3.91
2018-02-16T18:15:35.511Z,3.91
2018-02-16T18:18:38.989Z,3.85
2018-02-16T18:21:42.408Z,3.92
2018-02-16T18:24:45.793Z,3.96
2018-02-16T18:27:49.150Z,3.90
2018-02-16T18:30:52.686Z,3.79
2018-02-16T18:33:56.073Z,3.71
2018-02-16T18:36:59.486Z,3.71
2018-02-16T18:40:02.865Z,3.65
2018-02-16T18:43:06.287Z,3.71
2018-02-16T18:46:19.949Z,3.61
2018-02-16T18:49:23.791Z,3.50
2018-02-16T18:52:27.195Z,3.52
2018-02-16T18:55:30.608Z,3.49
2018-02-16T18:58:34.102Z,3.49
2018-02-16T19:01:38.289Z,3.49
2018-02-16T19:04:41.661Z,3.63
2018-02-16T19:07:45.155Z,3.60
2018-02-16T19:10:48.550Z,3.47
2018-02-16T19:13:52.324Z,3.53
2018-02-16T19:16:57.777Z,3.57
2018-02-16T19:20:02.658Z,3.52
2018-02-16T19:23:06.013Z,3.47
2018-02-16T19:26:09.365Z,3.38
2018-02-16T19:29:12.706Z,3.35
2018-02-16T19:32:16.351Z,3.35
2018-02-16T19:35:20.075Z,3.36
2018-02-16T19:38:23.702Z,3.29
2018-02-16T19:41:27.290Z,3.33
2018-02-16T19:44:30.793Z,3.34
2018-02-16T19:47:35.047Z,3.26
2018-02-16T19:50:38.824Z,3.21
2018-02-16T19:53:43.369Z,3.30
2018-02-16T19:56:47.221Z,3.28
2018-02-16T19:59:51.059Z,3.34
2018-02-16T20:02:54.677Z,3.33
2018-02-16T20:05:58.120Z,3.29
2018-02-16T20:09:01.586Z,3.31
2018-02-16T20:12:05.305Z,3.36
2018-02-16T20:15:09.616Z,3.36
2018-02-16T20:18:14.284Z,3.45
2018-02-16T20:21:19.079Z,3.39
2018-02-16T20:24:22.776Z,3.32
2018-02-16T20:27:26.664Z,3.37
2018-02-16T20:30:32.254Z,3.24
2018-02-16T20:33:35.738Z,3.29
2018-02-16T20:36:39.938Z,3.29
2018-02-16T20:39:43.555Z,3.04
2018-02-16T20:42:47.969Z,3.11
2018-02-16T20:45:52.448Z,3.14
2018-02-16T20:48:55.905Z,3.17
2018-02-16T20:51:59.438Z,3.25
2018-02-16T20:55:03.056Z,3.29
2018-02-16T20:58:06.581Z,3.30
2018-02-16T21:01:10.810Z,3.35
2018-02-16T21:04:31.861Z,3.42
2018-02-16T21:07:37.671Z,3.39
2018-02-16T21:10:41.032Z,3.38
2018-02-16T21:13:44.408Z,3.30
2018-02-16T21:16:47.754Z,3.30
2018-02-16T21:19:51.085Z,3.42
2018-02-16T21:22:54.476Z,3.41
2018-02-16T21:25:57.816Z,3.45
2018-02-16T21:29:01.155Z,3.38
2018-02-16T21:32:04.569Z,3.29
2018-02-16T21:35:07.956Z,3.35
2018-02-16T21:38:12.084Z,3.38
2018-02-16T21:41:15.432Z,3.35
2018-02-16T21:44:18.752Z,3.24
2018-02-16T21:47:22.313Z,3.09
2018-02-16T21:50:25.666Z,3.22
2018-02-16T21:53:29.811Z,3.28
2018-02-16T21:56:33.682Z,3.35
2018-02-16T21:59:37.782Z,3.31
2018-02-16T22:02:41.321Z,3.27
2018-02-16T22:05:44.943Z,3.11
2018-02-16T22:08:49.345Z,3.18
2018-02-16T22:11:52.741Z,3.22
2018-02-16T22:14:56.836Z,3.01
2018-02-16T22:18:00.861Z,3.03
2018-02-16T22:21:04.274Z,3.02
2018-02-16T22:24:07.675Z,3.05
2018-02-16T22:27:11.778Z,3.01
2018-02-16T22:30:15.886Z,3.00
2018-02-16T22:33:19.429Z,2.87
2018-02-16T22:36:22.836Z,2.89
2018-02-16T22:39:26.766Z,2.93
2018-02-16T22:42:30.200Z,2.93
2018-02-16T22:45:35.577Z,2.98
2018-02-16T22:48:38.932Z,2.87
2018-02-16T22:51:42.314Z,2.95
2018-02-16T22:54:45.653Z,2.96
2018-02-16T22:57:48.992Z,3.04
2018-02-16T23:00:52.372Z,2.98
2018-02-16T23:03:56.533Z,2.88
2018-02-16T23:06:59.893Z,2.89
2018-02-16T23:10:03.362Z,2.83
2018-02-16T23:13:06.756Z,2.85
2018-02-16T23:16:10.099Z,2.87
2018-02-16T23:19:13.550Z,2.74
2018-02-16T23:22:17.673Z,2.67
2018-02-16T23:25:21.017Z,2.63
2018-02-16T23:28:24.401Z,2.56
2018-02-16T23:31:28.532Z,2.52
2018-02-16T23:34:31.877Z,2.47
2018-02-16T23:37:37.050Z,2.54
2018-02-16T23:40:41.179Z,2.57
2018-02-16T23:43:45.230Z,2.56
2018-02-16T23:46:48.564Z,2.53
2018-02-16T23:49:51.919Z,2.59
2018-02-16T23:52:55.353Z,2.56
2018-02-16T23:55:58.746Z,2.43
2018-02-16T23:59:02.106Z,2.32
